Time;durP1;ratioP1;P1;durP2;ratioP2;P2;SDS_P1;SDS_P2;PMS_P1;PMS_P2;Temp;Humidity;BMP_temperature;BMP_pressure;BME280_temperature;BME280_humidity;BME280_pressure;Samples;Min_cycle;Max_cycle;Signal;HPM_P1;HPM_P2
2023/08/24 00:00:07;;;;;;;5.28;1.20;;;15.80;99.90;;;;;;5077210;28;20543;-63
2023/08/24 00:02:33;;;;;;;5.45;1.50;;;15.80;99.90;;;;;;5084505;28;20044;-63
2023/08/24 00:05:00;;;;;;;7.15;2.00;;;16.00;99.90;;;;;;5084425;28;20062;-63
2023/08/24 00:07:26;;;;;;;3.42;1.17;;;15.80;99.90;;;;;;5085342;28;20086;-63
2023/08/24 00:09:53;;;;;;;2.20;0.90;;;15.70;99.90;;;;;;5090018;28;20044;-63
2023/08/24 00:12:18;;;;;;;2.28;1.27;;;15.70;99.90;;;;;;5085931;27;20040;-63
2023/08/24 00:14:44;;;;;;;3.92;1.50;;;15.60;99.90;;;;;;5114480;27;20073;-63
2023/08/24 00:17:10;;;;;;;4.30;2.03;;;15.60;99.90;;;;;;5099270;28;20044;-63
2023/08/24 00:19:35;;;;;;;3.22;1.50;;;15.60;99.90;;;;;;5100623;28;20040;-63
2023/08/24 00:22:01;;;;;;;3.15;1.17;;;15.50;99.90;;;;;;5118039;27;20098;-63
2023/08/24 00:24:27;;;;;;;3.22;1.38;;;15.50;99.90;;;;;;5081657;28;20039;-63
2023/08/24 00:26:52;;;;;;;2.15;1.35;;;15.40;99.90;;;;;;5099910;28;20042;-63
2023/08/24 00:29:18;;;;;;;4.22;1.35;;;15.40;99.90;;;;;;5100940;28;20060;-63
2023/08/24 00:31:43;;;;;;;2.70;1.00;;;15.30;99.90;;;;;;5082197;28;20042;-63
2023/08/24 00:34:09;;;;;;;3.30;1.67;;;15.20;99.90;;;;;;5082986;28;20134;-63
2023/08/24 00:36:34;;;;;;;1.95;1.10;;;15.20;99.90;;;;;;5085462;28;20397;-63
2023/08/24 00:39:00;;;;;;;2.95;2.03;;;15.20;99.90;;;;;;5104872;28;20072;-63
2023/08/24 00:41:26;;;;;;;3.35;2.20;;;15.20;99.90;;;;;;5082708;28;20035;-63
2023/08/24 00:43:51;;;;;;;5.18;2.38;;;15.20;99.90;;;;;;5117757;27;20466;-63
2023/08/24 00:46:18;;;;;;;5.03;2.55;;;15.20;99.90;;;;;;5104559;28;20075;-63
2023/08/24 00:48:44;;;;;;;2.55;2.10;;;15.30;99.90;;;;;;5080168;28;20043;-64
2023/08/24 00:51:09;;;;;;;2.88;2.20;;;15.20;99.90;;;;;;5082483;28;20040;-63
2023/08/24 00:53:36;;;;;;;2.78;1.63;;;15.20;99.90;;;;;;5098444;28;20028;-63
2023/08/24 00:56:03;;;;;;;3.60;2.28;;;15.20;99.90;;;;;;5100125;28;20042;-63
2023/08/24 00:58:29;;;;;;;4.03;1.83;;;15.20;99.90;;;;;;5098676;28;20031;-63
2023/08/24 01:00:57;;;;;;;2.33;1.65;;;15.10;99.90;;;;;;5081463;28;20122;-63
2023/08/24 01:03:24;;;;;;;5.07;1.20;;;15.20;99.90;;;;;;5083026;28;20047;-63
2023/08/24 01:05:49;;;;;;;2.85;1.27;;;15.00;99.90;;;;;;5099012;28;20028;-63
2023/08/24 01:08:16;;;;;;;3.15;2.13;;;15.10;99.90;;;;;;5082703;28;20495;-63
2023/08/24 01:10:54;;;;;;;4.05;2.47;;;15.00;99.90;;;;;;5103295;28;20035;-63
2023/08/24 01:13:30;;;;;;;4.22;2.10;;;15.10;99.90;;;;;;5083256;28;20051;-63
2023/08/24 01:16:09;;;;;;;3.42;2.85;;;15.10;99.90;;;;;;5100179;28;20036;-63
2023/08/24 01:18:36;;;;;;;4.63;2.65;;;15.10;99.90;;;;;;5081470;28;20478;-64
2023/08/24 01:21:03;;;;;;;4.25;2.40;;;15.10;99.90;;;;;;5084670;28;20050;-63
2023/08/24 01:23:40;;;;;;;4.60;2.03;;;15.10;99.90;;;;;;5104113;28;20039;-63
2023/08/24 01:26:20;;;;;;;3.15;2.20;;;15.10;99.90;;;;;;5102034;28;20043;-63
2023/08/24 01:28:47;;;;;;;3.85;2.10;;;15.20;99.90;;;;;;5083753;28;20362;-63
2023/08/24 01:31:16;;;;;;;2.97;2.42;;;15.20;99.90;;;;;;5099212;28;20028;-63
2023/08/24 01:33:45;;;;;;;3.92;2.78;;;15.30;99.90;;;;;;5101893;28;20458;-63
2023/08/24 01:36:14;;;;;;;4.75;2.65;;;15.30;99.90;;;;;;5082439;28;20059;-63
2023/08/24 01:38:41;;;;;;;5.57;3.33;;;15.30;99.90;;;;;;5080473;28;20051;-63
2023/08/24 01:41:24;;;;;;;4.68;2.92;;;15.40;99.90;;;;;;5085318;28;20040;-63
2023/08/24 01:43:54;;;;;;;5.10;3.05;;;15.40;99.90;;;;;;5100469;28;20501;-63
2023/08/24 01:46:21;;;;;;;5.57;3.53;;;15.40;99.90;;;;;;5090947;28;20039;-63
2023/08/24 01:48:48;;;;;;;10.40;4.40;;;15.40;99.90;;;;;;5104980;28;20028;-63
2023/08/24 01:51:15;;;;;;;5.68;3.10;;;15.50;99.90;;;;;;5082940;28;20047;-63
2023/08/24 01:53:41;;;;;;;6.00;3.40;;;15.60;99.90;;;;;;5114773;28;20040;-63
2023/08/24 01:56:11;;;;;;;4.88;2.80;;;15.60;99.90;;;;;;5103996;28;20066;-63
2023/08/24 01:58:36;;;;;;;5.90;2.60;;;15.60;99.90;;;;;;5115688;28;20109;-63
2023/08/24 02:01:02;;;;;;;7.35;3.60;;;15.70;99.90;;;;;;5119117;28;20071;-63
2023/08/24 02:03:28;;;;;;;7.55;3.10;;;15.70;99.90;;;;;;5101605;28;20035;-63
2023/08/24 02:05:53;;;;;;;4.78;3.72;;;15.70;99.90;;;;;;5119729;27;20054;-63
2023/08/24 02:08:19;;;;;;;6.72;3.28;;;15.80;99.90;;;;;;5119834;27;20043;-63
2023/08/24 02:10:44;;;;;;;9.82;3.15;;;15.70;99.90;;;;;;5106344;27;20048;-63
2023/08/24 02:13:10;;;;;;;4.38;2.97;;;15.70;99.90;;;;;;5108143;28;20102;-63
2023/08/24 02:15:37;;;;;;;4.75;2.58;;;15.70;99.90;;;;;;5105093;28;20471;-63
2023/08/24 02:18:04;;;;;;;5.85;2.63;;;15.80;99.90;;;;;;5102710;28;20080;-63
2023/08/24 02:20:30;;;;;;;5.13;2.67;;;15.80;99.90;;;;;;5083071;28;20077;-63
2023/08/24 02:22:55;;;;;;;7.15;2.35;;;15.80;99.90;;;;;;5101461;28;20444;-63
2023/08/24 02:25:21;;;;;;;5.85;2.92;;;15.80;99.90;;;;;;5105613;28;20047;-63
2023/08/24 02:27:47;;;;;;;4.68;2.50;;;15.80;99.90;;;;;;5085558;28;20035;-63
2023/08/24 02:30:13;;;;;;;8.57;2.50;;;15.80;99.90;;;;;;5081902;28;20075;-63
2023/08/24 02:32:39;;;;;;;6.75;3.00;;;15.80;99.90;;;;;;5122227;27;20086;-63
2023/08/24 02:35:05;;;;;;;5.80;2.50;;;15.80;99.90;;;;;;5087957;28;20043;-63
2023/08/24 02:37:30;;;;;;;4.90;2.75;;;15.90;99.90;;;;;;5084092;28;20040;-63
2023/08/24 02:39:56;;;;;;;4.95;2.95;;;15.80;99.90;;;;;;5088130;28;20506;-63
2023/08/24 02:42:21;;;;;;;4.35;2.28;;;15.80;99.90;;;;;;5102163;28;20043;-63
2023/08/24 02:44:47;;;;;;;6.57;2.95;;;15.80;99.90;;;;;;5085707;28;20127;-63
2023/08/24 02:47:14;;;;;;;3.95;2.80;;;15.80;99.90;;;;;;5105581;27;20513;-63
2023/08/24 02:49:40;;;;;;;4.13;2.00;;;15.70;99.90;;;;;;5102831;28;20032;-63
2023/08/24 02:52:06;;;;;;;6.35;2.85;;;15.80;99.90;;;;;;5087789;28;20531;-63
2023/08/24 02:54:31;;;;;;;5.15;2.53;;;15.80;99.90;;;;;;5102467;28;20032;-63
2023/08/24 02:56:57;;;;;;;3.97;2.28;;;15.90;99.90;;;;;;5118215;27;20040;-63
2023/08/24 02:59:22;;;;;;;5.75;2.63;;;15.80;99.90;;;;;;5118500;27;20059;-63
2023/08/24 03:01:48;;;;;;;4.78;2.60;;;15.80;99.90;;;;;;5086003;28;20046;-63
2023/08/24 03:04:14;;;;;;;7.28;3.05;;;15.80;99.90;;;;;;5101581;28;20031;-63
2023/08/24 03:06:39;;;;;;;5.53;2.83;;;15.80;99.90;;;;;;5083775;28;20371;-64
2023/08/24 03:09:05;;;;;;;5.75;2.78;;;15.80;99.90;;;;;;5102676;28;20039;-63
2023/08/24 03:11:31;;;;;;;5.82;3.00;;;15.80;99.90;;;;;;5084623;28;20123;-63
2023/08/24 03:13:56;;;;;;;7.40;3.05;;;15.70;99.90;;;;;;5105792;28;20474;-63
2023/08/24 03:16:22;;;;;;;6.10;2.65;;;15.70;99.90;;;;;;5083329;28;20088;-63
2023/08/24 03:18:48;;;;;;;4.57;2.30;;;15.70;99.90;;;;;;5103574;28;20071;-63
2023/08/24 03:21:13;;;;;;;4.47;2.75;;;15.70;99.90;;;;;;5103493;28;20035;-63
2023/08/24 03:23:39;;;;;;;6.43;2.53;;;15.70;99.90;;;;;;5084911;28;20044;-63
2023/08/24 03:26:05;;;;;;;5.45;2.85;;;15.70;99.90;;;;;;5104335;28;20176;-63
2023/08/24 03:28:30;;;;;;;6.72;3.05;;;15.80;99.90;;;;;;5104450;28;20062;-63
2023/08/24 03:30:56;;;;;;;6.70;2.78;;;15.80;99.90;;;;;;5102863;27;20112;-64
2023/08/24 03:33:21;;;;;;;4.22;2.33;;;15.80;99.90;;;;;;5084253;28;20040;-63
2023/08/24 03:35:47;;;;;;;8.38;3.78;;;15.80;99.90;;;;;;5083113;28;20375;-63
2023/08/24 03:38:13;;;;;;;4.22;2.30;;;15.70;99.90;;;;;;5085962;28;20040;-64
2023/08/24 03:40:39;;;;;;;5.38;3.03;;;15.70;99.90;;;;;;5080901;28;20036;-63
2023/08/24 03:43:05;;;;;;;4.35;2.17;;;15.70;99.90;;;;;;5102780;28;20035;-63
2023/08/24 03:45:30;;;;;;;7.72;3.45;;;15.70;99.90;;;;;;5100807;28;20099;-63
2023/08/24 03:47:56;;;;;;;3.80;2.80;;;15.60;99.90;;;;;;5100244;27;20065;-63
2023/08/24 03:50:22;;;;;;;4.60;2.60;;;15.60;99.90;;;;;;5117699;27;20032;-64
2023/08/24 03:52:50;;;;;;;5.47;2.35;;;15.60;99.90;;;;;;5102133;28;20034;-63
2023/08/24 03:55:16;;;;;;;4.95;2.17;;;15.60;99.90;;;;;;5080447;28;20036;-63
2023/08/24 03:57:41;;;;;;;5.88;2.50;;;15.50;99.90;;;;;;5102894;28;20035;-63
2023/08/24 04:00:11;;;;;;;6.93;3.22;;;15.50;99.90;;;;;;5101024;27;20031;-63
2023/08/24 04:02:37;;;;;;;5.88;3.40;;;15.50;99.90;;;;;;5091930;28;20043;-63
2023/08/24 04:05:03;;;;;;;7.75;2.83;;;15.40;99.90;;;;;;5101914;28;20038;-63
2023/08/24 04:07:29;;;;;;;6.20;2.60;;;15.40;99.90;;;;;;5099249;28;20115;-63
2023/08/24 04:09:54;;;;;;;5.50;2.30;;;15.40;99.90;;;;;;5084191;28;20833;-64
2023/08/24 04:12:20;;;;;;;7.28;2.47;;;15.40;99.90;;;;;;5081946;28;20089;-63
2023/08/24 04:14:46;;;;;;;12.77;2.38;;;15.40;99.90;;;;;;5098564;28;20050;-63
2023/08/24 04:17:11;;;;;;;7.90;2.42;;;15.30;99.90;;;;;;5102607;28;20938;-63
2023/08/24 04:19:40;;;;;;;4.38;2.20;;;15.30;99.90;;;;;;5118560;27;20152;-63
2023/08/24 04:22:05;;;;;;;6.32;2.58;;;15.40;99.90;;;;;;5098207;28;20051;-63
2023/08/24 04:24:31;;;;;;;9.82;2.88;;;15.30;99.90;;;;;;5099492;28;20036;-64
2023/08/24 04:26:57;;;;;;;6.03;2.05;;;15.20;99.90;;;;;;5101521;28;20020;-63
2023/08/24 04:29:22;;;;;;;5.78;2.67;;;15.20;99.90;;;;;;5103574;28;20169;-63
2023/08/24 04:31:48;;;;;;;4.57;2.50;;;15.20;99.90;;;;;;5079465;28;20402;-63
2023/08/24 04:34:13;;;;;;;6.38;3.42;;;15.10;99.90;;;;;;5083328;28;20051;-63
2023/08/24 04:36:39;;;;;;;8.20;3.17;;;15.10;99.90;;;;;;5101490;28;20122;-63
2023/08/24 04:39:04;;;;;;;6.65;3.22;;;15.00;99.90;;;;;;5087593;28;20060;-63
2023/08/24 04:41:30;;;;;;;5.43;2.40;;;15.10;99.90;;;;;;5105490;28;20036;-63
2023/08/24 04:43:56;;;;;;;6.80;3.63;;;15.10;99.90;;;;;;5098891;28;20164;-63
2023/08/24 04:46:21;;;;;;;5.90;3.92;;;15.20;99.90;;;;;;5082358;28;20040;-63
2023/08/24 04:48:47;;;;;;;3.42;2.80;;;15.10;99.90;;;;;;5083685;28;20118;-63
2023/08/24 04:51:13;;;;;;;3.80;2.85;;;15.10;99.90;;;;;;5081205;28;20043;-64
2023/08/24 04:53:38;;;;;;;8.57;3.75;;;15.10;99.90;;;;;;5086787;28;20036;-63
2023/08/24 04:56:04;;;;;;;5.18;3.00;;;15.10;99.90;;;;;;5081521;28;20043;-63
2023/08/24 04:58:30;;;;;;;5.38;3.00;;;15.10;99.90;;;;;;5095040;28;20032;-63
2023/08/24 05:00:55;;;;;;;6.60;3.17;;;15.10;99.90;;;;;;5080584;28;20104;-63
2023/08/24 05:03:21;;;;;;;6.75;3.35;;;15.20;99.90;;;;;;5101766;28;20040;-63
2023/08/24 05:05:47;;;;;;;7.50;3.90;;;15.20;99.90;;;;;;5078945;28;20394;-63
2023/08/24 05:08:13;;;;;;;8.77;4.20;;;15.20;99.90;;;;;;5102912;28;20558;-64
2023/08/24 05:10:39;;;;;;;8.02;4.05;;;15.30;99.90;;;;;;5117947;28;20064;-63
2023/08/24 05:13:05;;;;;;;9.05;3.70;;;15.40;99.90;;;;;;5098198;28;20398;-63
2023/08/24 05:15:31;;;;;;;9.00;3.72;;;15.50;99.90;;;;;;5116350;28;20036;-63
2023/08/24 05:17:59;;;;;;;9.00;3.60;;;15.60;99.90;;;;;;5100968;28;20089;-63
2023/08/24 05:20:25;;;;;;;5.45;3.40;;;15.80;99.90;;;;;;5101537;28;20663;-63
2023/08/24 05:22:51;;;;;;;8.13;3.67;;;16.00;99.90;;;;;;5084719;28;20081;-64
2023/08/24 05:25:17;;;;;;;6.97;4.00;;;16.50;99.90;;;;;;5106390;28;20423;-64
2023/08/24 05:27:42;;;;;;;6.53;3.25;;;17.20;99.90;;;;;;5102044;28;20062;-63
2023/08/24 05:30:08;;;;;;;4.35;3.17;;;18.20;99.90;;;;;;5081226;28;20044;-64
2023/08/24 05:32:38;;;;;;;4.53;2.70;;;19.20;99.90;;;;;;5085016;28;20062;-64
2023/08/24 05:35:07;;;;;;;7.72;3.90;;;19.70;99.90;;;;;;5080642;28;20378;-64
2023/08/24 05:37:33;;;;;;;8.20;3.38;;;19.60;99.90;;;;;;5102111;27;20032;-64
2023/08/24 05:40:02;;;;;;;8.73;3.00;;;19.90;99.90;;;;;;5083603;28;20065;-63
2023/08/24 05:42:28;;;;;;;5.25;2.20;;;20.80;99.90;;;;;;5099574;27;20846;-63
2023/08/24 05:44:54;;;;;;;8.25;2.97;;;21.70;99.90;;;;;;5101785;27;20512;-64
2023/08/24 05:47:19;;;;;;;4.35;2.42;;;22.40;99.90;;;;;;5100126;28;20043;-64
2023/08/24 05:49:45;;;;;;;5.97;2.45;;;22.60;99.90;;;;;;5099215;27;20038;-64
2023/08/24 05:52:11;;;;;;;5.38;2.35;;;22.60;99.90;;;;;;5085398;28;20078;-64
2023/08/24 05:58:18;;;;;;;5.90;3.38;;;23.60;99.90;;;;;;5105607;28;20118;-64
2023/08/24 06:00:43;;;;;;;4.55;2.67;;;23.10;99.90;;;;;;5103226;28;20127;-64
2023/08/24 06:03:09;;;;;;;5.88;2.90;;;22.30;99.90;;;;;;5085942;28;20048;-64
2023/08/24 06:05:35;;;;;;;7.40;2.83;;;22.50;99.90;;;;;;5108571;28;20036;-64
2023/08/24 06:08:00;;;;;;;4.75;2.20;;;23.20;99.90;;;;;;5105651;28;20039;-64
2023/08/24 06:10:26;;;;;;;6.05;3.10;;;24.00;99.90;;;;;;5104621;28;20378;-64
2023/08/24 06:12:52;;;;;;;5.03;2.70;;;24.90;99.90;;;;;;5103240;28;20115;-64
2023/08/24 06:15:19;;;;;;;5.93;2.22;;;25.40;99.90;;;;;;5103244;28;20520;-64
2023/08/24 06:17:46;;;;;;;4.78;2.17;;;24.90;99.90;;;;;;5119601;27;20494;-64
2023/08/24 06:20:13;;;;;;;5.03;3.20;;;24.10;99.90;;;;;;5104262;28;20036;-64
2023/08/24 06:22:38;;;;;;;6.60;3.03;;;23.40;99.90;;;;;;5104628;27;20043;-64
2023/08/24 06:25:05;;;;;;;6.65;2.95;;;22.70;99.90;;;;;;5103635;28;20032;-63
2023/08/24 06:27:30;;;;;;;6.78;3.00;;;21.90;99.90;;;;;;5105494;28;20036;-63
2023/08/24 06:29:56;;;;;;;7.68;3.28;;;21.40;99.90;;;;;;5105415;28;20045;-63
2023/08/24 06:32:21;;;;;;;9.30;3.15;;;20.90;99.90;;;;;;5086506;28;20117;-63
2023/08/24 06:34:47;;;;;;;32.03;24.95;;;20.60;99.90;;;;;;5103573;28;20039;-63
2023/08/24 06:37:12;;;;;;;13.30;8.73;;;20.20;99.90;;;;;;5105042;27;20032;-63
2023/08/24 06:39:38;;;;;;;6.70;4.25;;;19.90;99.90;;;;;;5102403;28;20039;-63
2023/08/24 06:42:04;;;;;;;12.75;6.70;;;19.70;99.90;;;;;;5121376;27;20414;-63
2023/08/24 06:44:29;;;;;;;7.05;6.25;;;19.60;99.90;;;;;;5082108;28;20538;-63
2023/08/24 06:46:55;;;;;;;8.88;3.55;;;19.60;99.90;;;;;;5085218;28;20548;-63
2023/08/24 06:49:21;;;;;;;6.32;3.78;;;19.30;99.90;;;;;;5086590;28;20044;-63
2023/08/24 06:51:46;;;;;;;4.10;3.33;;;19.20;99.90;;;;;;5102004;28;20036;-64
2023/08/24 06:54:14;;;;;;;10.80;4.57;;;19.20;99.90;;;;;;5105499;27;20035;-63
2023/08/24 06:56:40;;;;;;;6.47;4.15;;;19.10;99.90;;;;;;5100619;28;20040;-64
2023/08/24 06:59:06;;;;;;;7.28;3.30;;;19.10;99.90;;;;;;5118059;27;20719;-64
2023/08/24 07:01:31;;;;;;;5.57;4.65;;;19.20;99.90;;;;;;5085985;28;20071;-63
2023/08/24 07:03:57;;;;;;;6.03;2.92;;;19.20;99.90;;;;;;5085895;28;20130;-63
2023/08/24 07:06:23;;;;;;;9.27;4.70;;;19.60;99.90;;;;;;5101744;28;20039;-63
2023/08/24 07:08:49;;;;;;;8.43;2.95;;;19.90;99.90;;;;;;5102002;27;20031;-63
2023/08/24 07:11:15;;;;;;;5.32;2.92;;;20.20;99.90;;;;;;5117232;27;20501;-64
2023/08/24 07:13:40;;;;;;;14.07;4.22;;;20.70;99.90;;;;;;5086687;28;20071;-64
2023/08/24 07:16:07;;;;;;;8.98;3.60;;;20.90;99.90;;;;;;5105138;27;20101;-64
2023/08/24 07:18:33;;;;;;;6.35;3.05;;;21.30;99.90;;;;;;5086486;28;20040;-64
2023/08/24 07:20:58;;;;;;;10.50;4.53;;;21.50;99.90;;;;;;5085617;28;20384;-64
2023/08/24 07:23:24;;;;;;;8.75;5.18;;;21.70;99.90;;;;;;5117200;27;20048;-64
2023/08/24 07:25:50;;;;;;;7.50;3.50;;;21.80;99.90;;;;;;5082923;28;20050;-64
2023/08/24 07:28:16;;;;;;;8.02;3.72;;;22.00;99.90;;;;;;5104115;27;20044;-64
2023/08/24 07:30:41;;;;;;;9.75;4.47;;;22.00;99.90;;;;;;5083741;27;20036;-64
2023/08/24 07:33:07;;;;;;;8.13;5.03;;;21.80;99.90;;;;;;5105854;27;20036;-64
2023/08/24 07:35:33;;;;;;;7.07;4.20;;;21.90;99.90;;;;;;5101688;28;20036;-64
2023/08/24 07:37:59;;;;;;;6.13;4.50;;;22.10;99.90;;;;;;5084340;28;20105;-64
2023/08/24 07:40:26;;;;;;;7.53;5.70;;;22.30;99.90;;;;;;5084021;28;20131;-64
2023/08/24 07:42:54;;;;;;;8.63;5.22;;;22.20;99.90;;;;;;5084397;28;20058;-64
2023/08/24 07:45:20;;;;;;;9.05;5.43;;;22.20;99.90;;;;;;5084759;28;20063;-64
2023/08/24 07:47:46;;;;;;;10.80;6.30;;;22.10;99.90;;;;;;5117277;27;20131;-64
2023/08/24 07:50:12;;;;;;;7.57;4.82;;;22.30;99.90;;;;;;5085899;28;20145;-64
2023/08/24 07:52:38;;;;;;;7.70;5.18;;;22.30;99.90;;;;;;5099829;27;20124;-64
2023/08/24 07:55:06;;;;;;;7.40;5.47;;;22.60;99.90;;;;;;5106006;28;20031;-63
2023/08/24 07:57:35;;;;;;;10.10;5.10;;;22.70;99.90;;;;;;5100519;28;20107;-64
2023/08/24 08:00:02;;;;;;;8.25;4.95;;;22.80;99.90;;;;;;5103590;28;20032;-64
2023/08/24 08:02:27;;;;;;;5.68;4.05;;;22.90;99.90;;;;;;5087111;28;20080;-64
2023/08/24 08:04:59;;;;;;;7.95;5.40;;;22.90;99.90;;;;;;5119099;27;20043;-63
2023/08/24 08:07:26;;;;;;;12.35;5.03;;;23.10;99.90;;;;;;5101715;28;20028;-64
2023/08/24 08:09:52;;;;;;;11.07;5.22;;;23.50;99.90;;;;;;5119259;27;20032;-64
2023/08/24 08:12:17;;;;;;;8.77;5.05;;;23.60;99.90;;;;;;5105070;28;20062;-64
2023/08/24 08:14:43;;;;;;;6.63;4.70;;;23.60;99.90;;;;;;5104036;28;20039;-64
2023/08/24 08:17:08;;;;;;;10.10;5.35;;;23.80;99.90;;;;;;5104704;27;20027;-64
2023/08/24 08:19:35;;;;;;;6.30;4.95;;;23.70;99.90;;;;;;5084886;27;20562;-65
2023/08/24 08:22:01;;;;;;;7.90;5.20;;;23.60;99.90;;;;;;5086837;28;20077;-64
2023/08/24 08:24:27;;;;;;;5.45;4.60;;;23.70;99.90;;;;;;5106450;28;20048;-64
2023/08/24 08:26:53;;;;;;;6.57;5.03;;;23.70;99.90;;;;;;5103644;28;20035;-64
2023/08/24 08:29:18;;;;;;;12.90;5.28;;;23.80;99.90;;;;;;5118569;27;20036;-63
2023/08/24 08:31:44;;;;;;;7.50;5.43;;;24.00;99.90;;;;;;5118732;27;20417;-64
2023/08/24 08:34:09;;;;;;;7.53;4.95;;;24.00;99.90;;;;;;5101864;28;20044;-65
2023/08/24 08:36:35;;;;;;;6.30;4.53;;;24.20;99.90;;;;;;5085956;28;20042;-64
2023/08/24 08:39:00;;;;;;;9.00;4.95;;;24.20;99.90;;;;;;5100418;28;20035;-64
2023/08/24 08:41:30;;;;;;;9.07;4.90;;;24.10;99.90;;;;;;5082225;28;20047;-65
2023/08/24 08:43:56;;;;;;;8.48;5.30;;;24.10;99.90;;;;;;5098706;28;20035;-64
2023/08/24 08:46:22;;;;;;;12.88;5.15;;;23.80;99.90;;;;;;5100265;28;20039;-64
2023/08/24 08:48:50;;;;;;;9.40;5.30;;;23.90;99.90;;;;;;5104692;28;20039;-63
2023/08/24 08:51:17;;;;;;;8.70;5.10;;;24.10;99.90;;;;;;5103588;27;20079;-64
2023/08/24 08:53:43;;;;;;;7.95;5.18;;;24.30;99.90;;;;;;5118320;27;20065;-64
2023/08/24 08:56:09;;;;;;;5.82;4.63;;;24.50;99.90;;;;;;5084578;28;20092;-64
2023/08/24 08:58:36;;;;;;;6.57;4.68;;;24.70;99.90;;;;;;5106239;28;20039;-64
2023/08/24 09:01:03;;;;;;;12.85;6.18;;;24.70;99.90;;;;;;5100471;28;20507;-64
2023/08/24 09:03:31;;;;;;;8.52;5.45;;;24.60;99.90;;;;;;5087457;28;20050;-64
2023/08/24 09:05:57;;;;;;;9.05;5.22;;;24.60;99.90;;;;;;5103149;28;20380;-64
2023/08/24 09:08:25;;;;;;;8.13;5.55;;;24.70;99.90;;;;;;5115207;28;20069;-64
2023/08/24 09:10:51;;;;;;;11.57;5.03;;;24.80;99.90;;;;;;5082635;28;20061;-63
2023/08/24 09:13:17;;;;;;;9.07;5.50;;;24.80;99.90;;;;;;5105488;28;20059;-64
2023/08/24 09:15:43;;;;;;;6.22;5.63;;;24.70;99.90;;;;;;5103942;28;20052;-65
2023/08/24 09:18:08;;;;;;;8.30;5.30;;;24.50;99.90;;;;;;5106681;28;20034;-65
2023/08/24 09:20:35;;;;;;;9.02;5.47;;;24.70;99.90;;;;;;5086745;28;20126;-64
2023/08/24 09:23:01;;;;;;;6.35;5.50;;;24.60;99.90;;;;;;5085931;28;20130;-63
2023/08/24 09:25:27;;;;;;;9.23;5.32;;;24.70;99.90;;;;;;5086742;28;20055;-65
2023/08/24 09:27:59;;;;;;;13.52;6.38;;;24.70;99.90;;;;;;5120733;27;20612;-64
2023/08/24 09:30:45;;;;;;;9.55;5.85;;;24.60;99.90;;;;;;5107421;28;20039;-64
2023/08/24 09:33:11;;;;;;;11.35;6.43;;;24.70;99.90;;;;;;5096252;28;20086;-64
2023/08/24 09:35:37;;;;;;;11.23;6.68;;;24.50;99.90;;;;;;5103462;28;20071;-64
2023/08/24 09:38:18;;;;;;;8.40;6.45;;;24.20;99.90;;;;;;5103967;28;20096;-64
2023/08/24 09:40:48;;;;;;;10.07;6.50;;;23.90;99.90;;;;;;5088195;28;20054;-64
2023/08/24 09:43:14;;;;;;;12.48;7.22;;;23.70;99.90;;;;;;5104978;27;20039;-64
2023/08/24 09:45:54;;;;;;;7.47;6.18;;;23.50;99.90;;;;;;5085309;28;20483;-65
2023/08/24 09:48:21;;;;;;;9.38;6.80;;;23.40;99.90;;;;;;5118982;27;20123;-64
2023/08/24 09:50:49;;;;;;;7.78;5.97;;;23.30;99.90;;;;;;5105488;28;20036;-64
2023/08/24 09:53:20;;;;;;;6.90;5.93;;;23.10;99.90;;;;;;5102379;28;20458;-64
2023/08/24 09:56:00;;;;;;;10.40;6.10;;;23.10;99.90;;;;;;5104282;27;20036;-64
2023/08/24 09:58:27;;;;;;;6.63;5.85;;;23.10;99.90;;;;;;5087714;28;20048;-63
2023/08/24 10:00:53;;;;;;;7.57;6.13;;;23.10;99.90;;;;;;5087220;28;20058;-64
2023/08/24 10:03:21;;;;;;;8.63;5.70;;;23.20;99.90;;;;;;5105020;28;20552;-63
2023/08/24 10:05:57;;;;;;;13.00;5.97;;;23.20;99.90;;;;;;5105580;28;20039;-64
2023/08/24 10:08:35;;;;;;;8.30;6.25;;;23.20;99.90;;;;;;5093467;28;20085;-64
2023/08/24 10:11:01;;;;;;;10.30;6.03;;;23.30;99.90;;;;;;5087765;27;20490;-64
2023/08/24 10:13:36;;;;;;;8.88;6.30;;;23.20;99.90;;;;;;5086522;28;20134;-63
2023/08/24 10:16:04;;;;;;;8.63;6.18;;;23.20;99.90;;;;;;5082191;28;20054;-64
2023/08/24 10:18:30;;;;;;;8.00;5.65;;;23.00;99.90;;;;;;5100888;28;20035;-65
2023/08/24 10:20:57;;;;;;;11.38;5.28;;;22.90;99.90;;;;;;5103527;28;20046;-64
2023/08/24 10:23:24;;;;;;;8.80;6.72;;;22.90;99.90;;;;;;5087871;28;20048;-64
2023/08/24 10:25:52;;;;;;;8.95;5.60;;;22.80;99.90;;;;;;5102768;28;20551;-64
2023/08/24 10:28:19;;;;;;;10.07;5.97;;;22.80;99.90;;;;;;5105478;28;20405;-64
2023/08/24 10:30:47;;;;;;;6.72;5.82;;;22.80;99.90;;;;;;5101985;28;20036;-64
2023/08/24 10:33:14;;;;;;;7.00;5.55;;;22.70;99.90;;;;;;5105181;28;20040;-64
2023/08/24 10:35:41;;;;;;;9.60;6.38;;;22.80;99.90;;;;;;5086205;28;20040;-66
2023/08/24 10:38:07;;;;;;;9.18;5.70;;;22.80;99.90;;;;;;5085576;28;20068;-66
2023/08/24 10:40:34;;;;;;;8.15;5.78;;;22.80;99.90;;;;;;5106561;28;20636;-65
2023/08/24 10:43:03;;;;;;;6.68;5.70;;;22.80;99.90;;;;;;5120027;27;20044;-65
2023/08/24 10:45:59;;;;;;;9.07;5.93;;;22.80;99.90;;;;;;5105257;27;20031;-63
2023/08/24 10:48:29;;;;;;;8.10;5.82;;;22.80;99.90;;;;;;5103180;27;20478;-63
2023/08/24 10:51:14;;;;;;;9.55;6.05;;;22.80;99.90;;;;;;5101333;27;20047;-64
2023/08/24 10:53:40;;;;;;;8.73;5.47;;;22.80;99.90;;;;;;5120879;27;20075;-64
2023/08/24 10:56:16;;;;;;;7.88;5.82;;;22.80;99.90;;;;;;5101837;28;20059;-63
2023/08/24 10:58:43;;;;;;;9.65;5.63;;;22.80;99.90;;;;;;5085153;28;20044;-64
2023/08/24 11:01:16;;;;;;;11.07;5.72;;;22.80;99.90;;;;;;5104979;28;20073;-64
2023/08/24 11:03:46;;;;;;;7.07;5.43;;;22.80;99.90;;;;;;5085225;28;20507;-64
2023/08/24 11:06:22;;;;;;;7.22;5.75;;;22.90;99.90;;;;;;5104613;28;20031;-63
2023/08/24 11:08:49;;;;;;;7.90;6.68;;;22.90;99.90;;;;;;5090749;28;20155;-64
2023/08/24 11:11:21;;;;;;;8.52;6.32;;;23.00;99.90;;;;;;5103415;28;20050;-63
2023/08/24 11:14:29;;;;;;;8.25;5.30;;;23.00;99.90;;;;;;5104790;28;20054;-63
2023/08/24 11:16:58;;;;;;;11.02;5.85;;;23.10;99.90;;;;;;5088372;28;20036;-63
2023/08/24 11:19:24;;;;;;;9.90;7.95;;;23.10;99.90;;;;;;5084587;28;20047;-64
2023/08/24 11:21:51;;;;;;;12.68;8.82;;;23.20;99.90;;;;;;5092421;28;20051;-64
2023/08/24 11:24:17;;;;;;;13.27;8.15;;;23.10;99.90;;;;;;5106595;28;20481;-64
2023/08/24 11:26:48;;;;;;;14.45;7.90;;;23.20;99.90;;;;;;5083162;28;20044;-64
2023/08/24 11:29:15;;;;;;;13.07;8.60;;;23.30;99.90;;;;;;5086770;28;20119;-64
2023/08/24 11:31:41;;;;;;;12.50;8.48;;;23.50;99.90;;;;;;5104938;27;20085;-64
2023/08/24 11:34:07;;;;;;;10.60;7.35;;;23.50;99.90;;;;;;5118473;27;20047;-64
2023/08/24 11:36:47;;;;;;;10.45;6.82;;;23.40;99.90;;;;;;5103206;28;20042;-64
2023/08/24 11:39:17;;;;;;;6.97;6.03;;;23.50;99.90;;;;;;5102320;28;20374;-64
2023/08/24 11:41:44;;;;;;;10.95;6.25;;;23.50;99.90;;;;;;5115850;27;20052;-64
2023/08/24 11:44:09;;;;;;;7.28;6.57;;;23.60;99.90;;;;;;5102217;28;20107;-64
2023/08/24 11:46:37;;;;;;;6.90;6.20;;;23.60;99.90;;;;;;5102028;28;20533;-64
2023/08/24 11:49:06;;;;;;;13.63;7.40;;;23.70;99.90;;;;;;5084790;28;20040;-64
2023/08/24 11:51:34;;;;;;;8.23;6.03;;;23.80;99.90;;;;;;5106763;28;20119;-64
2023/08/24 11:53:59;;;;;;;6.88;6.18;;;23.90;99.90;;;;;;5100189;28;20592;-64
2023/08/24 11:56:25;;;;;;;8.70;6.60;;;24.10;99.90;;;;;;5080385;28;20126;-64
2023/08/24 11:58:50;;;;;;;8.43;6.25;;;24.10;99.90;;;;;;5101225;28;20100;-64
2023/08/24 12:01:17;;;;;;;7.32;6.25;;;24.20;99.90;;;;;;5086548;28;20065;-63
2023/08/24 12:03:42;;;;;;;7.68;6.40;;;24.30;99.90;;;;;;5116379;27;20044;-64
2023/08/24 12:06:16;;;;;;;7.80;5.85;;;24.30;99.90;;;;;;5114644;27;20043;-64
2023/08/24 12:08:45;;;;;;;8.75;6.05;;;24.40;99.90;;;;;;5105102;28;20077;-63
2023/08/24 12:11:16;;;;;;;11.10;6.63;;;24.40;99.90;;;;;;5085580;28;21590;-63
2023/08/24 12:13:55;;;;;;;6.60;5.95;;;24.40;99.90;;;;;;5100978;27;20051;-64
2023/08/24 12:16:22;;;;;;;8.90;5.90;;;24.50;99.90;;;;;;5099334;28;20150;-63
2023/08/24 12:18:55;;;;;;;9.68;6.60;;;24.50;99.90;;;;;;5081800;28;20040;-63
2023/08/24 12:21:22;;;;;;;12.43;5.70;;;24.60;99.90;;;;;;5106284;28;20130;-63
2023/08/24 12:24:05;;;;;;;8.45;5.22;;;24.60;99.90;;;;;;5101033;28;20036;-63
2023/08/24 12:26:32;;;;;;;7.25;5.95;;;24.60;99.90;;;;;;5082502;28;20035;-64
2023/08/24 12:29:03;;;;;;;6.90;6.18;;;24.60;99.90;;;;;;5102286;28;20420;-65
2023/08/24 12:31:29;;;;;;;7.43;5.93;;;24.70;99.90;;;;;;5086097;28;20032;-64
2023/08/24 12:34:05;;;;;;;8.10;5.45;;;24.60;99.90;;;;;;5083496;28;20032;-65
2023/08/24 12:36:33;;;;;;;10.60;5.88;;;24.70;99.90;;;;;;5085289;28;20043;-63
2023/08/24 12:38:59;;;;;;;11.98;6.05;;;24.60;99.90;;;;;;5100096;28;20039;-62
2023/08/24 12:41:25;;;;;;;6.75;5.45;;;24.60;99.90;;;;;;5101107;28;20039;-64
2023/08/24 12:43:51;;;;;;;5.43;4.68;;;24.60;99.90;;;;;;5098824;28;20035;-63
2023/08/24 12:46:17;;;;;;;6.75;5.40;;;24.50;99.90;;;;;;5100516;28;20509;-63
2023/08/24 12:48:43;;;;;;;6.38;5.15;;;24.70;99.90;;;;;;5083620;28;20028;-63